createdAt,value
2022-10-02T00:01:32.944Z,5.90
2022-10-02T00:04:03.562Z,2.50
2022-10-02T00:06:41.879Z,4.03
2022-10-02T00:09:17.071Z,6.33
2022-10-02T00:11:48.049Z,10.67
2022-10-02T00:14:19.221Z,4.57
2022-10-02T00:16:49.617Z,19.50
2022-10-02T00:19:21.211Z,11.27
2022-10-02T00:21:57.921Z,6.23
2022-10-02T00:24:29.179Z,3.67
2022-10-02T00:27:02.748Z,5.90
2022-10-02T00:29:40.749Z,7.00
2022-10-02T00:32:17.678Z,17.10
2022-10-02T00:35:04.133Z,3.47
2022-10-02T00:37:42.174Z,4.93
2022-10-02T00:40:34.252Z,3.30
2022-10-02T00:43:12.088Z,15.90
2022-10-02T00:46:04.179Z,14.30
2022-10-02T00:48:49.151Z,5.17
2022-10-02T00:51:34.283Z,2.77
2022-10-02T00:54:14.057Z,3.73
2022-10-02T00:56:52.635Z,8.70
2022-10-02T00:59:38.752Z,10.47
2022-10-02T01:02:12.070Z,7.00
2022-10-02T01:04:41.394Z,5.87
2022-10-02T01:07:13.822Z,13.33
2022-10-02T01:09:42.805Z,48.47
2022-10-02T01:12:10.995Z,7.27
2022-10-02T01:14:40.029Z,9.60
2022-10-02T01:17:20.128Z,3.97
2022-10-02T01:19:47.884Z,15.73
2022-10-02T01:22:24.948Z,8.83
2022-10-02T01:24:54.601Z,9.13
2022-10-02T01:27:22.307Z,3.80
2022-10-02T01:29:54.412Z,2.80
2022-10-02T01:32:22.672Z,2.93
2022-10-02T01:34:51.825Z,7.27
2022-10-02T01:37:19.975Z,3.73
2022-10-02T01:39:47.457Z,3.57
2022-10-02T01:42:17.102Z,5.43
2022-10-02T01:44:46.632Z,4.93
2022-10-02T01:47:19.623Z,3.70
2022-10-02T01:50:01.648Z,3.37
2022-10-02T01:52:44.818Z,2.80
2022-10-02T01:55:26.500Z,16.70
2022-10-02T01:58:03.257Z,2.90
2022-10-02T02:00:42.022Z,2.90
2022-10-02T02:03:19.763Z,2.93
2022-10-02T02:05:54.329Z,2.70
2022-10-02T02:08:29.704Z,2.50
2022-10-02T02:11:10.886Z,2.60
2022-10-02T02:13:46.771Z,2.90
2022-10-02T02:16:22.608Z,2.07
2022-10-02T02:18:54.831Z,3.40
2022-10-02T02:21:27.825Z,2.80
2022-10-02T02:23:58.260Z,3.27
2022-10-02T02:26:28.820Z,3.00
2022-10-02T02:29:01.701Z,2.57
2022-10-02T02:31:33.987Z,3.17
2022-10-02T02:34:06.456Z,2.70
2022-10-02T02:36:37.915Z,3.20
2022-10-02T02:39:10.620Z,2.70
2022-10-02T02:41:42.504Z,3.33
2022-10-02T02:44:19.589Z,3.07
2022-10-02T02:47:04.679Z,3.33
2022-10-02T02:49:45.062Z,3.07
2022-10-02T02:52:17.902Z,2.60
2022-10-02T02:54:49.493Z,3.03
2022-10-02T02:57:18.930Z,3.30
2022-10-02T02:59:51.269Z,2.33
2022-10-02T03:02:18.736Z,3.00
2022-10-02T03:04:46.207Z,3.10
2022-10-02T03:07:17.332Z,2.47
2022-10-02T03:09:56.018Z,2.80
2022-10-02T03:12:33.212Z,2.90
2022-10-02T03:15:15.080Z,2.83
2022-10-02T03:18:00.811Z,2.47
2022-10-02T03:20:37.033Z,2.73
2022-10-02T03:23:13.254Z,3.23
2022-10-02T03:25:46.863Z,2.70
2022-10-02T03:28:37.339Z,2.83
2022-10-02T03:31:11.867Z,2.67
2022-10-02T03:33:41.173Z,2.90
2022-10-02T03:36:09.607Z,2.90
2022-10-02T03:38:37.598Z,2.57
2022-10-02T03:41:05.160Z,2.83
2022-10-02T03:43:32.589Z,2.63
2022-10-02T03:46:00.065Z,2.80
2022-10-02T03:48:28.813Z,2.87
2022-10-02T03:50:56.241Z,2.97
2022-10-02T03:53:30.329Z,3.10
2022-10-02T03:56:05.784Z,3.10
2022-10-02T03:58:33.902Z,2.57
2022-10-02T04:01:05.630Z,2.20
2022-10-02T04:03:37.635Z,2.30
2022-10-02T04:06:10.658Z,2.67
2022-10-02T04:08:43.977Z,2.10
2022-10-02T04:11:16.712Z,2.80
2022-10-02T04:13:48.140Z,2.67
2022-10-02T04:16:21.115Z,3.80
2022-10-02T04:18:56.743Z,2.37
2022-10-02T04:21:35.268Z,2.87
2022-10-02T04:24:11.773Z,2.60
2022-10-02T04:26:45.170Z,2.60
2022-10-02T04:29:18.818Z,2.47
2022-10-02T04:31:51.942Z,2.70
2022-10-02T04:34:21.091Z,2.57
2022-10-02T04:37:06.194Z,2.70
2022-10-02T04:39:52.797Z,2.63
2022-10-02T04:42:31.060Z,2.27
2022-10-02T04:45:10.821Z,2.60
2022-10-02T04:48:15.159Z,2.33
2022-10-02T04:50:52.570Z,2.00
2022-10-02T04:53:41.243Z,2.50
2022-10-02T04:56:23.885Z,3.10
2022-10-02T04:59:04.780Z,2.13
2022-10-02T05:01:45.986Z,2.77
2022-10-02T05:04:34.656Z,2.73
2022-10-02T05:07:16.701Z,2.60
2022-10-02T05:09:54.935Z,2.37
2022-10-02T05:12:45.430Z,2.70
2022-10-02T05:15:39.943Z,2.27
2022-10-02T05:18:27.241Z,2.23
2022-10-02T05:21:13.564Z,2.50
2022-10-02T05:24:03.677Z,2.33
2022-10-02T05:26:49.208Z,2.60
2022-10-02T05:29:29.686Z,2.60
2022-10-02T05:32:17.673Z,3.67
2022-10-02T05:35:01.309Z,2.00
2022-10-02T05:37:43.255Z,2.53
2022-10-02T05:40:22.880Z,2.33
2022-10-02T05:42:59.405Z,2.30
2022-10-02T05:45:32.019Z,2.63
2022-10-02T05:48:09.236Z,2.40
2022-10-02T05:50:38.910Z,2.10
2022-10-02T05:53:12.485Z,2.43
2022-10-02T05:55:49.175Z,2.40
2022-10-02T05:58:23.564Z,2.50
2022-10-02T06:00:55.137Z,2.50
2022-10-02T06:03:27.442Z,2.60
2022-10-02T06:05:57.334Z,2.60
2022-10-02T06:08:31.505Z,2.60
2022-10-02T06:11:07.854Z,2.60
2022-10-02T06:13:41.468Z,2.43
2022-10-02T06:16:15.120Z,2.57
2022-10-02T06:18:49.075Z,2.73
2022-10-02T06:21:26.393Z,3.00
2022-10-02T06:23:59.419Z,3.17
2022-10-02T06:26:36.946Z,2.80
2022-10-02T06:29:16.002Z,2.83
2022-10-02T06:31:52.657Z,3.07
2022-10-02T06:34:20.971Z,2.73
2022-10-02T06:36:59.928Z,2.53
2022-10-02T06:39:59.857Z,2.90
2022-10-02T06:42:44.105Z,2.83
2022-10-02T06:45:21.245Z,5.00
2022-10-02T06:48:02.492Z,4.63
2022-10-02T06:50:43.887Z,4.40
2022-10-02T06:53:26.980Z,4.13
2022-10-02T06:56:04.387Z,3.37
2022-10-02T06:58:45.298Z,3.90
2022-10-02T07:01:25.320Z,3.60
2022-10-02T07:04:05.420Z,4.00
2022-10-02T07:06:46.833Z,4.00
2022-10-02T07:09:39.163Z,4.13
2022-10-02T07:12:20.570Z,3.73
2022-10-02T07:15:03.153Z,4.13
2022-10-02T07:17:44.413Z,4.17
2022-10-02T07:20:25.160Z,4.33
2022-10-02T07:23:09.895Z,4.47
2022-10-02T07:26:11.546Z,3.70
2022-10-02T07:28:43.212Z,4.83
2022-10-02T07:31:20.976Z,4.03
2022-10-02T07:34:03.534Z,4.50
2022-10-02T07:36:40.829Z,5.10
2022-10-02T07:39:22.660Z,4.73
2022-10-02T07:42:20.460Z,4.57
2022-10-02T07:45:02.457Z,5.17
2022-10-02T07:47:47.239Z,4.63
2022-10-02T07:50:20.355Z,4.83
2022-10-02T07:52:57.623Z,5.17
2022-10-02T07:55:26.668Z,4.77
2022-10-02T07:58:03.699Z,4.70
2022-10-02T08:00:36.429Z,4.90
2022-10-02T08:03:10.271Z,4.80
2022-10-02T08:05:42.240Z,5.00
2022-10-02T08:08:18.326Z,5.10
2022-10-02T08:10:49.867Z,4.90
2022-10-02T08:13:21.542Z,4.97
2022-10-02T08:15:54.549Z,5.13
2022-10-02T08:18:34.761Z,5.47
2022-10-02T08:21:04.218Z,4.70
2022-10-02T08:23:37.626Z,5.23
2022-10-02T08:26:10.740Z,5.33
2022-10-02T08:28:44.978Z,4.50
2022-10-02T08:31:13.427Z,4.93
2022-10-02T08:33:43.290Z,4.93
2022-10-02T08:36:40.349Z,35.30
2022-10-02T08:39:20.876Z,32.60
2022-10-02T08:42:10.357Z,28.80
2022-10-02T08:45:12.888Z,6.13
2022-10-02T08:48:07.513Z,28.50
2022-10-02T08:51:11.791Z,35.23
2022-10-02T08:54:13.986Z,25.50
2022-10-02T08:56:58.736Z,10.57
2022-10-02T08:59:58.559Z,25.27
2022-10-02T09:02:52.743Z,25.73
2022-10-02T09:05:52.112Z,16.37
2022-10-02T09:08:47.091Z,9.80
2022-10-02T09:12:01.349Z,18.80
2022-10-02T09:14:58.055Z,14.20
2022-10-02T09:17:46.071Z,14.23
2022-10-02T09:20:41.444Z,11.60
2022-10-02T09:23:39.571Z,13.00
2022-10-02T09:26:20.316Z,4.88
2022-10-02T09:29:37.752Z,4.43
2022-10-02T09:32:59.823Z,13.37
2022-10-02T09:35:54.167Z,9.83
2022-10-02T09:39:01.556Z,7.13
2022-10-02T09:42:11.071Z,5.90
2022-10-02T09:45:14.011Z,9.20
2022-10-02T09:48:30.291Z,8.93
2022-10-02T09:51:31.062Z,4.40
2022-10-02T09:54:21.591Z,4.73
2022-10-02T09:57:17.670Z,4.70
2022-10-02T10:00:04.190Z,4.20
2022-10-02T10:02:57.764Z,3.70
2022-10-02T10:05:45.071Z,4.83
2022-10-02T10:08:37.344Z,3.80
2022-10-02T10:11:29.267Z,4.27
2022-10-02T10:14:29.309Z,4.37
2022-10-02T10:17:23.799Z,4.00
2022-10-02T10:20:31.006Z,5.50
2022-10-02T10:23:31.704Z,4.83
2022-10-02T10:26:22.660Z,3.43
2022-10-02T10:29:16.591Z,3.40
2022-10-02T10:32:19.895Z,4.20
2022-10-02T10:35:10.334Z,3.73
2022-10-02T10:38:24.332Z,3.67
2022-10-02T10:41:11.075Z,3.40
2022-10-02T10:44:21.915Z,3.93
2022-10-02T10:47:20.311Z,3.50
2022-10-02T10:50:18.575Z,3.07
2022-10-02T10:53:04.371Z,2.83
2022-10-02T10:55:49.402Z,2.57
2022-10-02T10:58:28.822Z,3.33
2022-10-02T11:01:09.714Z,2.70
2022-10-02T11:04:26.506Z,3.10
2022-10-02T11:07:16.311Z,3.20
2022-10-02T11:10:22.408Z,3.63
2022-10-02T11:13:05.657Z,2.83
2022-10-02T11:16:06.483Z,3.30
2022-10-02T11:18:58.807Z,3.20
2022-10-02T11:22:08.410Z,3.57
2022-10-02T11:24:57.942Z,3.83
2022-10-02T11:27:45.346Z,3.93
2022-10-02T11:30:22.512Z,4.03
2022-10-02T11:33:24.883Z,4.73
2022-10-02T11:36:08.706Z,3.77
2022-10-02T11:39:14.868Z,3.40
2022-10-02T11:42:12.154Z,3.07
2022-10-02T11:44:55.620Z,3.97
2022-10-02T11:48:00.583Z,3.63
2022-10-02T11:50:48.683Z,3.80
2022-10-02T11:53:37.548Z,3.40
2022-10-02T11:56:31.121Z,3.10
2022-10-02T11:59:18.574Z,3.37
2022-10-02T12:01:54.542Z,4.00
2022-10-02T12:04:39.161Z,4.00
2022-10-02T12:07:20.353Z,4.03
2022-10-02T12:10:02.122Z,3.80
2022-10-02T12:12:41.918Z,3.70
2022-10-02T12:15:23.993Z,4.33
2022-10-02T12:18:21.820Z,3.70
2022-10-02T12:21:21.488Z,3.40
2022-10-02T12:24:08.901Z,3.60
2022-10-02T12:26:59.692Z,3.50
2022-10-02T12:29:41.739Z,3.17
2022-10-02T12:32:23.201Z,2.30
2022-10-02T12:35:03.650Z,2.57
2022-10-02T12:37:38.837Z,2.33
2022-10-02T12:40:17.082Z,3.13
2022-10-02T12:43:04.959Z,3.07
2022-10-02T12:46:01.699Z,2.70
2022-10-02T12:49:00.469Z,2.80
2022-10-02T12:51:35.766Z,2.47
2022-10-02T12:54:20.257Z,2.10
2022-10-02T12:57:38.930Z,2.57
2022-10-02T13:00:14.568Z,2.67
2022-10-02T13:03:19.523Z,2.40
2022-10-02T13:06:03.604Z,2.00
2022-10-02T13:08:48.430Z,1.90
2022-10-02T13:11:27.227Z,2.10
2022-10-02T13:14:15.517Z,1.90
2022-10-02T13:17:12.496Z,1.73
2022-10-02T13:19:59.707Z,2.40
2022-10-02T13:22:39.046Z,2.03
2022-10-02T13:25:25.681Z,2.10
2022-10-02T13:28:05.745Z,2.03
2022-10-02T13:30:38.734Z,1.60
2022-10-02T13:33:22.282Z,1.80
2022-10-02T13:36:01.594Z,2.27
2022-10-02T13:38:46.424Z,1.80
2022-10-02T13:41:29.922Z,2.20
2022-10-02T13:44:08.331Z,1.83
2022-10-02T13:46:56.687Z,2.30
2022-10-02T13:49:37.967Z,2.10
2022-10-02T13:52:14.390Z,2.00
2022-10-02T13:55:10.595Z,1.93
2022-10-02T13:57:56.440Z,2.23
2022-10-02T14:00:41.375Z,2.10
2022-10-02T14:03:18.637Z,2.10
2022-10-02T14:05:57.034Z,2.20
2022-10-02T14:08:40.416Z,1.60
2022-10-02T14:11:20.329Z,1.77
2022-10-02T14:14:03.417Z,2.00
2022-10-02T14:16:49.194Z,1.90
2022-10-02T14:19:45.807Z,1.73
2022-10-02T14:22:33.884Z,1.67
2022-10-02T14:25:18.293Z,1.43
2022-10-02T14:27:58.286Z,1.77
2022-10-02T14:30:34.272Z,1.33
2022-10-02T14:33:09.433Z,1.60
2022-10-02T14:35:50.121Z,1.50
2022-10-02T14:38:36.247Z,1.77
2022-10-02T14:41:18.929Z,1.90
2022-10-02T14:44:14.312Z,1.57
2022-10-02T14:46:59.346Z,1.50
2022-10-02T14:49:40.671Z,1.50
2022-10-02T14:52:30.292Z,1.50
2022-10-02T14:55:15.914Z,1.30
2022-10-02T14:57:59.077Z,1.70
2022-10-02T15:00:36.583Z,1.43
2022-10-02T15:03:33.864Z,1.30
2022-10-02T15:06:21.776Z,1.60
2022-10-02T15:08:53.437Z,1.37
2022-10-02T15:11:28.627Z,1.37
2022-10-02T15:14:02.717Z,2.10
2022-10-02T15:17:01.456Z,1.57
2022-10-02T15:19:33.034Z,1.37
2022-10-02T15:22:04.566Z,2.07
2022-10-02T15:24:34.297Z,1.70
2022-10-02T15:27:16.903Z,1.70
2022-10-02T15:30:00.861Z,1.53
2022-10-02T15:32:49.061Z,1.67
2022-10-02T15:35:28.518Z,1.50
2022-10-02T15:38:21.414Z,1.33
2022-10-02T15:41:05.138Z,1.83
2022-10-02T15:43:48.233Z,3.50
2022-10-02T15:46:25.532Z,1.70
2022-10-02T15:49:13.305Z,1.73
2022-10-02T15:52:01.376Z,1.30
2022-10-02T15:54:40.010Z,2.10
2022-10-02T15:57:25.879Z,1.70
2022-10-02T16:00:03.125Z,1.93
2022-10-02T16:02:56.571Z,2.13
2022-10-02T16:05:44.390Z,2.20
2022-10-02T16:08:34.304Z,2.30
2022-10-02T16:11:19.930Z,2.07
2022-10-02T16:13:59.199Z,1.90
2022-10-02T16:16:58.075Z,2.20
2022-10-02T16:19:44.763Z,2.00
2022-10-02T16:22:26.129Z,2.30
2022-10-02T16:25:09.322Z,2.03
2022-10-02T16:27:53.382Z,2.50
2022-10-02T16:30:22.082Z,2.73
2022-10-02T16:33:11.064Z,2.70
2022-10-02T16:36:10.603Z,2.40
2022-10-02T16:38:50.410Z,2.40
2022-10-02T16:41:26.679Z,2.83
2022-10-02T16:44:09.728Z,7.47
2022-10-02T16:46:45.014Z,3.87
2022-10-02T16:49:23.648Z,3.23
2022-10-02T16:52:01.641Z,2.90
2022-10-02T16:54:44.904Z,4.00
2022-10-02T16:57:23.456Z,2.50
2022-10-02T16:59:56.057Z,4.20
2022-10-02T17:02:33.160Z,3.53
2022-10-02T17:05:05.398Z,2.80
2022-10-02T17:07:49.519Z,2.80
2022-10-02T17:10:26.100Z,2.80
2022-10-02T17:13:00.881Z,2.83
2022-10-02T17:15:35.232Z,18.37
2022-10-02T17:18:14.553Z,5.43
2022-10-02T17:20:47.465Z,5.57
2022-10-02T17:23:21.061Z,4.33
2022-10-02T17:25:59.522Z,3.60
2022-10-02T17:28:36.336Z,2.80
2022-10-02T17:31:29.943Z,2.63
2022-10-02T17:33:59.491Z,3.53
2022-10-02T17:36:36.488Z,3.53
2022-10-02T17:39:23.824Z,3.90
2022-10-02T17:41:59.320Z,20.97
2022-10-02T17:44:39.841Z,11.43
2022-10-02T17:47:31.574Z,12.33
2022-10-02T17:50:12.483Z,5.83
2022-10-02T17:53:03.354Z,7.47
2022-10-02T17:56:16.868Z,3.77
2022-10-02T17:58:56.477Z,3.80
2022-10-02T18:01:29.101Z,10.27
2022-10-02T18:04:11.000Z,9.70
2022-10-02T18:06:46.157Z,11.87
2022-10-02T18:09:30.875Z,11.00
2022-10-02T18:12:21.668Z,5.30
2022-10-02T18:15:11.753Z,5.43
2022-10-02T18:17:48.656Z,8.87
2022-10-02T18:20:27.771Z,9.43
2022-10-02T18:23:13.002Z,9.27
2022-10-02T18:25:57.708Z,9.50
2022-10-02T18:28:43.429Z,9.00
2022-10-02T18:31:54.020Z,7.97
2022-10-02T18:34:34.435Z,7.20
2022-10-02T18:37:15.117Z,6.67
2022-10-02T18:39:57.893Z,7.20
2022-10-02T18:42:47.321Z,6.03
2022-10-02T18:45:29.594Z,6.17
2022-10-02T18:48:19.976Z,4.87
2022-10-02T18:51:02.673Z,5.07
2022-10-02T18:53:46.835Z,5.73
2022-10-02T18:56:22.814Z,4.70
2022-10-02T18:59:08.975Z,4.80
2022-10-02T19:01:48.957Z,4.30
2022-10-02T19:05:01.201Z,4.47
2022-10-02T19:07:39.135Z,4.07
2022-10-02T19:10:29.654Z,3.87
2022-10-02T19:13:17.747Z,3.40
2022-10-02T19:15:47.814Z,3.07
2022-10-02T19:18:20.476Z,3.47
2022-10-02T19:21:02.915Z,3.60
2022-10-02T19:23:38.364Z,4.10
2022-10-02T19:26:18.480Z,13.83
2022-10-02T19:28:49.702Z,6.10
2022-10-02T19:31:22.630Z,5.20
2022-10-02T19:33:54.170Z,4.10
2022-10-02T19:36:26.172Z,3.97
2022-10-02T19:38:58.732Z,4.00
2022-10-02T19:41:26.743Z,3.43
2022-10-02T19:43:58.868Z,3.70
2022-10-02T19:46:36.335Z,9.37
2022-10-02T19:49:05.658Z,3.10
2022-10-02T19:51:43.697Z,3.83
2022-10-02T19:54:19.425Z,3.67
2022-10-02T19:56:47.364Z,3.23
2022-10-02T19:59:19.232Z,3.73
2022-10-02T20:01:51.669Z,3.40
2022-10-02T20:04:21.191Z,4.73
2022-10-02T20:06:52.962Z,3.03
2022-10-02T20:09:28.353Z,2.90
2022-10-02T20:12:01.010Z,3.73
2022-10-02T20:14:32.113Z,2.83
2022-10-02T20:17:10.757Z,3.07
2022-10-02T20:19:42.303Z,3.80
2022-10-02T20:22:19.476Z,3.40
2022-10-02T20:24:54.497Z,3.07
2022-10-02T20:27:30.000Z,4.20
2022-10-02T20:30:03.529Z,3.27
2022-10-02T20:32:35.584Z,2.87
2022-10-02T20:35:12.253Z,2.63
2022-10-02T20:37:41.371Z,3.30
2022-10-02T20:40:16.415Z,3.73
2022-10-02T20:42:50.507Z,3.00
2022-10-02T20:45:18.171Z,3.40
2022-10-02T20:48:15.241Z,3.10
2022-10-02T20:50:54.979Z,2.93
2022-10-02T20:53:49.585Z,2.83
2022-10-02T20:56:41.568Z,2.93
2022-10-02T20:59:36.499Z,2.80
2022-10-02T21:02:19.804Z,3.13
2022-10-02T21:05:12.019Z,3.10
2022-10-02T21:08:14.725Z,3.07
2022-10-02T21:11:12.976Z,3.20
2022-10-02T21:14:18.793Z,3.40
2022-10-02T21:17:16.012Z,3.30
2022-10-02T21:20:10.005Z,3.27
2022-10-02T21:23:20.921Z,3.10
2022-10-02T21:26:16.571Z,3.47
2022-10-02T21:29:26.516Z,2.97
2022-10-02T21:32:21.279Z,4.30
2022-10-02T21:35:07.139Z,3.63
2022-10-02T21:37:46.557Z,3.67
2022-10-02T21:40:46.092Z,3.50
2022-10-02T21:43:51.201Z,3.60
2022-10-02T21:46:54.800Z,3.60
2022-10-02T21:49:58.263Z,3.77
2022-10-02T21:53:03.533Z,3.20
2022-10-02T21:55:59.893Z,3.63
2022-10-02T21:58:54.493Z,3.03
2022-10-02T22:02:08.172Z,3.83
2022-10-02T22:04:59.044Z,3.77
2022-10-02T22:07:36.206Z,3.60
2022-10-02T22:10:13.023Z,3.43
2022-10-02T22:12:59.685Z,3.90
2022-10-02T22:15:38.229Z,3.17
2022-10-02T22:18:16.524Z,3.67
2022-10-02T22:21:09.187Z,4.07
2022-10-02T22:23:53.732Z,3.90
2022-10-02T22:26:38.655Z,3.30
2022-10-02T22:29:14.526Z,3.93
2022-10-02T22:32:20.907Z,3.57
2022-10-02T22:35:00.939Z,3.70
2022-10-02T22:37:45.286Z,3.57
2022-10-02T22:40:16.657Z,4.07
2022-10-02T22:42:52.337Z,4.30
2022-10-02T22:45:27.822Z,3.10
2022-10-02T22:48:04.426Z,3.53
2022-10-02T22:50:37.379Z,3.30
2022-10-02T22:53:11.681Z,4.03
2022-10-02T22:55:48.053Z,3.53
2022-10-02T22:58:20.965Z,3.23
2022-10-02T23:01:00.735Z,3.67
2022-10-02T23:03:34.887Z,3.93
2022-10-02T23:06:07.164Z,3.50
2022-10-02T23:08:39.776Z,4.00
2022-10-02T23:11:15.504Z,4.23
2022-10-02T23:13:49.913Z,3.60
2022-10-02T23:16:24.290Z,3.57
2022-10-02T23:18:58.900Z,3.37
2022-10-02T23:21:38.293Z,3.77
2022-10-02T23:24:19.598Z,3.47
2022-10-02T23:26:50.257Z,4.60
2022-10-02T23:29:26.432Z,3.77
2022-10-02T23:32:00.215Z,3.70
2022-10-02T23:34:43.442Z,3.43
2022-10-02T23:37:22.523Z,3.97
2022-10-02T23:39:57.473Z,3.80
2022-10-02T23:42:32.233Z,3.07
2022-10-02T23:45:10.156Z,3.57
2022-10-02T23:47:54.335Z,4.30
2022-10-02T23:50:26.084Z,4.13
2022-10-02T23:53:14.889Z,4.10
2022-10-02T23:55:57.579Z,3.70
2022-10-02T23:58:46.694Z,3.80
